createdAt,value
2017-07-11T00:01:10.586Z,1002.35
2017-07-11T00:02:10.522Z,1002.2
2017-07-11T00:03:10.460Z,1002.19
2017-07-11T00:04:10.396Z,1002.2
2017-07-11T00:05:10.335Z,1002.19
2017-07-11T00:06:10.273Z,1002.26
2017-07-11T00:07:10.211Z,1002.28
2017-07-11T00:08:10.148Z,1002.16
2017-07-11T00:09:10.086Z,1002.23
2017-07-11T00:10:10.024Z,1002.3
2017-07-11T00:11:09.962Z,1002.27
2017-07-11T00:12:09.899Z,1002.33
2017-07-11T00:13:09.837Z,1002.29
2017-07-11T00:14:09.776Z,1002.3
2017-07-11T00:15:09.714Z,1002.25
2017-07-11T00:16:09.652Z,1002.24
2017-07-11T00:17:09.591Z,1002.26
2017-07-11T00:18:09.528Z,1002.28
2017-07-11T00:19:09.465Z,1002.29
2017-07-11T00:20:09.405Z,1002.29
2017-07-11T00:21:09.342Z,1002.29
2017-07-11T00:22:09.279Z,1002.34
2017-07-11T00:23:09.220Z,1002.34
2017-07-11T00:24:09.156Z,1002.34
2017-07-11T00:25:09.094Z,1002.35
2017-07-11T00:26:09.035Z,1002.39
2017-07-11T00:27:08.970Z,1002.36
2017-07-11T00:28:08.907Z,1002.44
2017-07-11T00:29:08.847Z,1002.43
2017-07-11T00:30:08.784Z,1002.44
2017-07-11T00:31:08.721Z,1002.46
2017-07-11T00:32:08.660Z,1002.53
2017-07-11T00:33:08.598Z,1002.55
2017-07-11T00:34:08.536Z,1002.57
2017-07-11T00:35:08.477Z,1002.66
2017-07-11T00:36:08.416Z,1002.69
2017-07-11T00:37:08.349Z,1002.7
2017-07-11T00:38:08.288Z,1002.74
2017-07-11T00:39:08.226Z,1002.79
2017-07-11T00:40:08.163Z,1002.82
2017-07-11T00:41:08.101Z,1002.8
2017-07-11T00:42:08.040Z,1002.84
2017-07-11T00:43:07.977Z,1002.85
2017-07-11T00:44:07.915Z,1002.84
2017-07-11T00:45:07.853Z,1002.85
2017-07-11T00:46:07.790Z,1002.85
2017-07-11T00:47:07.730Z,1002.82
2017-07-11T00:48:07.666Z,1002.79
2017-07-11T00:49:07.605Z,1002.81
2017-07-11T00:50:07.545Z,1002.82
2017-07-11T00:51:07.482Z,1002.79
2017-07-11T00:52:07.418Z,1002.8
2017-07-11T00:53:07.357Z,1002.8
2017-07-11T00:54:07.306Z,1002.84
2017-07-11T00:55:07.233Z,1002.84
2017-07-11T00:56:07.171Z,1002.88
2017-07-11T00:57:07.111Z,1002.85
2017-07-11T00:58:07.047Z,1002.88
2017-07-11T00:59:06.985Z,1002.9
2017-07-11T01:00:06.924Z,1002.91
2017-07-11T01:01:06.861Z,1002.92
2017-07-11T01:02:06.799Z,1002.88
2017-07-11T01:03:06.737Z,1002.88
2017-07-11T01:04:06.675Z,1002.86
2017-07-11T01:05:06.619Z,1002.87
2017-07-11T01:06:06.551Z,1002.88
2017-07-11T01:07:06.489Z,1002.87
2017-07-11T01:08:06.427Z,1002.89
2017-07-11T01:09:06.366Z,1002.92
2017-07-11T01:10:06.305Z,1002.9
2017-07-11T01:11:06.241Z,1002.9
2017-07-11T01:12:06.179Z,1002.88
2017-07-11T01:13:06.117Z,1002.85
2017-07-11T01:14:06.055Z,1002.94
2017-07-11T01:15:06.093Z,1002.95
2017-07-11T01:16:05.932Z,1003.02
2017-07-11T01:17:05.868Z,1003.04
2017-07-11T01:18:05.808Z,1003.06
2017-07-11T01:19:05.746Z,1003.02
2017-07-11T01:20:05.684Z,1003.04
2017-07-11T01:21:05.620Z,1003.04
2017-07-11T01:22:05.559Z,1003.08
2017-07-11T01:23:05.498Z,1003.08
2017-07-11T01:24:05.436Z,1003.12
2017-07-11T01:25:05.373Z,1003.12
2017-07-11T01:26:05.315Z,1003.11
2017-07-11T01:27:05.250Z,1003.08
2017-07-11T01:28:05.196Z,1003.13
2017-07-11T01:29:05.125Z,1003.08
2017-07-11T01:30:05.064Z,1003.07
2017-07-11T01:31:05.002Z,1003.13
2017-07-11T01:32:04.939Z,1003.12
2017-07-11T01:33:04.878Z,1003.12
2017-07-11T01:34:04.815Z,1003.14
2017-07-11T01:35:04.754Z,1003.08
2017-07-11T01:36:04.692Z,1003.06
2017-07-11T01:37:04.630Z,1003.04
2017-07-11T01:38:04.568Z,1002.99
2017-07-11T01:39:04.508Z,1003.04
2017-07-11T01:40:04.445Z,1002.98
2017-07-11T01:41:04.392Z,1002.93
2017-07-11T01:42:04.321Z,1002.99
2017-07-11T01:43:04.258Z,1002.94
2017-07-11T01:44:04.197Z,1002.93
2017-07-11T01:45:04.134Z,1002.94
2017-07-11T01:46:04.074Z,1002.99
2017-07-11T01:47:04.011Z,1003.01
2017-07-11T01:48:03.948Z,1003.07
2017-07-11T01:49:03.887Z,1003.1
2017-07-11T01:50:03.825Z,1003.15
2017-07-11T01:51:03.763Z,1003.15
2017-07-11T01:52:03.700Z,1003.17
2017-07-11T01:53:03.639Z,1003.18
2017-07-11T01:54:03.577Z,1003.16
2017-07-11T01:55:03.515Z,1003.13
2017-07-11T01:56:03.455Z,1003.12
2017-07-11T01:57:03.396Z,1003.16
2017-07-11T01:58:03.328Z,1003.1
2017-07-11T01:59:03.267Z,1003.15
2017-07-11T02:00:03.204Z,1003.15
2017-07-11T02:01:03.142Z,1003.13
2017-07-11T02:02:03.081Z,1003.17
2017-07-11T02:03:03.020Z,1003.15
2017-07-11T02:04:02.957Z,1003.15
2017-07-11T02:05:02.895Z,1003.13
2017-07-11T02:06:02.833Z,1003.19
2017-07-11T02:07:02.771Z,1003.22
2017-07-11T02:08:02.728Z,1003.22
2017-07-11T02:09:02.648Z,1003.31
2017-07-11T02:10:02.585Z,1003.27
2017-07-11T02:11:02.524Z,1003.33
2017-07-11T02:12:02.462Z,1003.26
2017-07-11T02:13:02.407Z,1003.31
2017-07-11T02:14:02.337Z,1003.31
2017-07-11T02:15:02.277Z,1003.3
2017-07-11T02:16:02.213Z,1003.28
2017-07-11T02:17:02.152Z,1003.32
2017-07-11T02:18:02.091Z,1003.35
2017-07-11T02:19:02.027Z,1003.32
2017-07-11T02:20:01.966Z,1003.25
2017-07-11T02:21:01.906Z,1003.25
2017-07-11T02:22:01.842Z,1003.22
2017-07-11T02:23:01.779Z,1003.23
2017-07-11T02:24:01.718Z,1003.28
2017-07-11T02:25:01.757Z,1003.25
2017-07-11T02:26:01.595Z,1003.22
2017-07-11T02:27:01.533Z,1003.24
2017-07-11T02:28:01.472Z,1003.26
2017-07-11T02:29:01.410Z,1003.24
2017-07-11T02:30:01.347Z,1003.25
2017-07-11T02:31:01.285Z,1003.24
2017-07-11T02:32:01.223Z,1003.26
2017-07-11T02:33:01.161Z,1003.24
2017-07-11T02:34:01.098Z,1003.24
2017-07-11T02:35:01.036Z,1003.26
2017-07-11T02:36:00.976Z,1003.29
2017-07-11T02:37:00.913Z,1003.33
2017-07-11T02:38:00.853Z,1003.35
2017-07-11T02:39:00.789Z,1003.42
2017-07-11T02:40:00.728Z,1003.38
2017-07-11T02:41:00.667Z,1003.36
2017-07-11T02:42:00.606Z,1003.4
2017-07-11T02:43:00.542Z,1003.39
2017-07-11T02:44:00.479Z,1003.41
2017-07-11T02:45:00.417Z,1003.4
2017-07-11T02:46:00.356Z,1003.43
2017-07-11T02:47:00.293Z,1003.44
2017-07-11T02:48:00.232Z,1003.43
2017-07-11T02:49:00.170Z,1003.42
2017-07-11T02:50:00.107Z,1003.35
2017-07-11T02:51:00.047Z,1003.39
2017-07-11T02:51:59.985Z,1003.36
2017-07-11T02:52:59.922Z,1003.38
2017-07-11T02:53:59.861Z,1003.38
2017-07-11T02:54:59.799Z,1003.42
2017-07-11T02:55:59.737Z,1003.4
2017-07-11T02:56:59.677Z,1003.4
2017-07-11T02:57:59.614Z,1003.41
2017-07-11T02:58:59.550Z,1003.42
2017-07-11T02:59:59.489Z,1003.42
2017-07-11T03:00:59.427Z,1003.46
2017-07-11T03:01:59.365Z,1003.44
2017-07-11T03:02:59.302Z,1003.46
2017-07-11T03:03:59.241Z,1003.51
2017-07-11T03:04:59.178Z,1003.49
2017-07-11T03:05:59.118Z,1003.49
2017-07-11T03:06:59.056Z,1003.51
2017-07-11T03:07:58.993Z,1003.48
2017-07-11T03:08:58.938Z,1003.5
2017-07-11T03:09:58.870Z,1003.51
2017-07-11T03:10:58.808Z,1003.55
2017-07-11T03:11:58.747Z,1003.51
2017-07-11T03:12:58.685Z,1003.5
2017-07-11T03:13:58.622Z,1003.53
2017-07-11T03:14:58.559Z,1003.51
2017-07-11T03:15:58.504Z,1003.55
2017-07-11T03:16:58.436Z,1003.53
2017-07-11T03:17:58.375Z,1003.55
2017-07-11T03:18:58.312Z,1003.54
2017-07-11T03:19:58.250Z,1003.5
2017-07-11T03:20:58.188Z,1003.52
2017-07-11T03:21:58.126Z,1003.54
2017-07-11T03:22:58.064Z,1003.54
2017-07-11T03:23:58.005Z,1003.56
2017-07-11T03:24:57.941Z,1003.58
2017-07-11T03:25:57.880Z,1003.6
2017-07-11T03:26:57.818Z,1003.61
2017-07-11T03:27:57.756Z,1003.64
2017-07-11T03:28:57.694Z,1003.64
2017-07-11T03:29:57.631Z,1003.65
2017-07-11T03:30:57.568Z,1003.67
2017-07-11T03:31:57.507Z,1003.63
2017-07-11T03:32:57.444Z,1003.61
2017-07-11T03:33:57.383Z,1003.66
2017-07-11T03:34:57.321Z,1003.64
2017-07-11T03:35:57.259Z,1003.66
2017-07-11T03:36:57.196Z,1003.65
2017-07-11T03:37:57.135Z,1003.68
2017-07-11T03:38:57.074Z,1003.7
2017-07-11T03:39:57.011Z,1003.78
2017-07-11T03:40:56.959Z,1003.78
2017-07-11T03:41:56.888Z,1003.8
2017-07-11T03:42:56.824Z,1003.81
2017-07-11T03:43:56.762Z,1003.83
2017-07-11T03:44:56.702Z,1003.85
2017-07-11T03:45:56.639Z,1003.85
2017-07-11T03:46:56.576Z,1003.88
2017-07-11T03:47:56.514Z,1003.85
2017-07-11T03:48:56.454Z,1003.89
2017-07-11T03:49:56.391Z,1003.87
2017-07-11T03:50:56.329Z,1003.91
2017-07-11T03:51:56.267Z,1003.91
2017-07-11T03:52:56.205Z,1003.94
2017-07-11T03:53:56.143Z,1003.94
2017-07-11T03:54:56.081Z,1003.99
2017-07-11T03:55:56.020Z,1004.02
2017-07-11T03:56:55.958Z,1004.03
2017-07-11T03:57:55.894Z,1004.05
2017-07-11T03:58:55.832Z,1004.08
2017-07-11T03:59:55.772Z,1004.06
2017-07-11T04:00:55.709Z,1004.07
2017-07-11T04:01:55.648Z,1004.08
2017-07-11T04:02:55.584Z,1004.06
2017-07-11T04:03:55.524Z,1004.06
2017-07-11T04:04:55.463Z,1004.17
2017-07-11T04:05:55.399Z,1004.22
2017-07-11T04:06:55.337Z,1004.23
2017-07-11T04:07:55.277Z,1004.2
2017-07-11T04:08:55.213Z,1004.17
2017-07-11T04:09:55.150Z,1004.21
2017-07-11T04:10:55.090Z,1004.19
2017-07-11T04:11:55.028Z,1004.2
2017-07-11T04:12:54.965Z,1004.21
2017-07-11T04:13:54.903Z,1004.19
2017-07-11T04:14:54.842Z,1004.24
2017-07-11T04:15:54.779Z,1004.24
2017-07-11T04:16:54.717Z,1004.23
2017-07-11T04:17:54.655Z,1004.2
2017-07-11T04:18:54.592Z,1004.18
2017-07-11T04:19:54.531Z,1004.22
2017-07-11T04:20:54.469Z,1004.23
2017-07-11T04:21:54.408Z,1004.22
2017-07-11T04:22:54.344Z,1004.26
2017-07-11T04:23:54.281Z,1004.26
2017-07-11T04:24:54.222Z,1004.24
2017-07-11T04:25:54.159Z,1004.26
2017-07-11T04:26:54.095Z,1004.27
2017-07-11T04:27:54.035Z,1004.26
2017-07-11T04:28:53.990Z,1004.26
2017-07-11T04:29:53.909Z,1004.26
2017-07-11T04:30:53.849Z,1004.25
2017-07-11T04:31:53.785Z,1004.27
2017-07-11T04:32:53.723Z,1004.29
2017-07-11T04:33:53.660Z,1004.33
2017-07-11T04:34:53.599Z,1004.33
2017-07-11T04:35:53.560Z,1004.35
2017-07-11T04:36:53.476Z,1004.38
2017-07-11T04:37:53.413Z,1004.41
2017-07-11T04:38:53.350Z,1004.4
2017-07-11T04:39:53.288Z,1004.37
2017-07-11T04:40:53.226Z,1004.4
2017-07-11T04:41:53.165Z,1004.4
2017-07-11T04:42:53.102Z,1004.37
2017-07-11T04:43:53.039Z,1004.39
2017-07-11T04:44:52.977Z,1004.36
2017-07-11T04:45:52.915Z,1004.38
2017-07-11T04:46:52.854Z,1004.37
2017-07-11T04:47:52.791Z,1004.4
2017-07-11T04:48:52.730Z,1004.39
2017-07-11T04:49:52.668Z,1004.43
2017-07-11T04:50:52.605Z,1004.43
2017-07-11T04:51:52.543Z,1004.4
2017-07-11T04:52:52.480Z,1004.41
2017-07-11T04:53:52.419Z,1004.47
2017-07-11T04:54:52.356Z,1004.5
2017-07-11T04:55:52.294Z,1004.48
2017-07-11T04:56:52.231Z,1004.51
2017-07-11T04:57:52.169Z,1004.49
2017-07-11T04:58:52.109Z,1004.49
2017-07-11T04:59:52.045Z,1004.5
2017-07-11T05:00:52.136Z,1004.54
2017-07-11T05:01:51.922Z,1004.53
2017-07-11T05:02:51.862Z,1004.54
2017-07-11T05:03:51.794Z,1004.59
2017-07-11T05:04:51.733Z,1004.56
2017-07-11T05:05:51.687Z,1004.57
2017-07-11T05:06:51.608Z,1004.57
2017-07-11T05:07:51.546Z,1004.61
2017-07-11T05:08:51.483Z,1004.62
2017-07-11T05:09:51.444Z,1004.55
2017-07-11T05:10:51.357Z,1004.56
2017-07-11T05:11:51.297Z,1004.56
2017-07-11T05:12:51.234Z,1004.52
2017-07-11T05:13:51.172Z,1004.55
2017-07-11T05:14:51.111Z,1004.55
2017-07-11T05:15:51.048Z,1004.61
2017-07-11T05:16:50.984Z,1004.63
2017-07-11T05:17:50.922Z,1004.62
2017-07-11T05:18:50.861Z,1004.67
2017-07-11T05:19:50.799Z,1004.65
2017-07-11T05:20:50.736Z,1004.69
2017-07-11T05:21:50.672Z,1004.7
2017-07-11T05:22:50.675Z,1004.73
2017-07-11T05:23:50.548Z,1004.72
2017-07-11T05:24:50.487Z,1004.71
2017-07-11T05:25:50.423Z,1004.7
2017-07-11T05:26:50.363Z,1004.72
2017-07-11T05:27:50.298Z,1004.71
2017-07-11T05:28:50.238Z,1004.71
2017-07-11T05:29:50.174Z,1004.7
2017-07-11T05:30:50.113Z,1004.74
2017-07-11T05:31:50.049Z,1004.71
2017-07-11T05:32:49.986Z,1004.72
2017-07-11T05:33:49.925Z,1004.66
2017-07-11T05:34:49.861Z,1004.7
2017-07-11T05:35:49.801Z,1004.67
2017-07-11T05:36:49.741Z,1004.66
2017-07-11T05:37:49.674Z,1004.66
2017-07-11T05:38:49.612Z,1004.63
2017-07-11T05:39:49.550Z,1004.62
2017-07-11T05:40:49.487Z,1004.59
2017-07-11T05:41:49.426Z,1004.58
2017-07-11T05:42:49.363Z,1004.58
2017-07-11T05:43:49.301Z,1004.6
2017-07-11T05:44:49.239Z,1004.61
2017-07-11T05:45:49.175Z,1004.63
2017-07-11T05:46:49.113Z,1004.62
2017-07-11T05:47:49.051Z,1004.62
2017-07-11T05:48:48.988Z,1004.61
2017-07-11T05:49:48.927Z,1004.6
2017-07-11T05:50:48.862Z,1004.61
2017-07-11T05:51:48.801Z,1004.59
2017-07-11T05:52:48.738Z,1004.63
2017-07-11T05:53:48.676Z,1004.61
2017-07-11T05:54:48.614Z,1004.6
2017-07-11T05:55:48.560Z,1004.64
2017-07-11T05:56:48.488Z,1004.65
2017-07-11T05:57:48.426Z,1004.69
2017-07-11T05:58:48.363Z,1004.7
2017-07-11T05:59:48.301Z,1004.72
2017-07-11T06:00:48.248Z,1004.68
2017-07-11T06:01:48.187Z,1004.68
2017-07-11T06:02:48.113Z,1004.64
2017-07-11T06:03:48.051Z,1004.68
2017-07-11T06:04:47.991Z,1004.65
2017-07-11T06:05:47.925Z,1004.67
2017-07-11T06:06:47.864Z,1004.7
2017-07-11T06:07:47.801Z,1004.69
2017-07-11T06:08:47.740Z,1004.68
2017-07-11T06:09:47.675Z,1004.71
2017-07-11T06:10:47.614Z,1004.71
2017-07-11T06:11:47.551Z,1004.7
2017-07-11T06:12:47.488Z,1004.67
2017-07-11T06:13:47.425Z,1004.71
2017-07-11T06:14:47.363Z,1004.69
2017-07-11T06:15:47.302Z,1004.7
2017-07-11T06:16:47.241Z,1004.69
2017-07-11T06:17:47.177Z,1004.7
2017-07-11T06:18:47.114Z,1004.72
2017-07-11T06:19:47.051Z,1004.71
2017-07-11T06:20:46.992Z,1004.75
2017-07-11T06:21:46.927Z,1004.74
2017-07-11T06:22:46.864Z,1004.73
2017-07-11T06:23:46.801Z,1004.75
2017-07-11T06:24:46.738Z,1004.74
2017-07-11T06:25:46.676Z,1004.74
2017-07-11T06:26:46.614Z,1004.76
2017-07-11T06:27:46.552Z,1004.73
2017-07-11T06:28:46.491Z,1004.77
2017-07-11T06:29:46.429Z,1004.76
2017-07-11T06:30:46.363Z,1004.78
2017-07-11T06:31:46.300Z,1004.76
2017-07-11T06:32:46.239Z,1004.79
2017-07-11T06:33:46.175Z,1004.83
2017-07-11T06:34:46.112Z,1004.82
2017-07-11T06:35:46.049Z,1004.84
2017-07-11T06:36:45.989Z,1004.83
2017-07-11T06:37:45.924Z,1004.83
2017-07-11T06:38:45.862Z,1004.84
2017-07-11T06:39:45.800Z,1004.87
2017-07-11T06:40:45.739Z,1004.87
2017-07-11T06:41:45.674Z,1004.88
2017-07-11T06:42:45.611Z,1004.86
2017-07-11T06:43:45.549Z,1004.88
2017-07-11T06:44:45.488Z,1004.89
2017-07-11T06:45:45.424Z,1004.87
2017-07-11T06:46:45.363Z,1004.89
2017-07-11T06:47:45.299Z,1004.85
2017-07-11T06:48:45.239Z,1004.86
2017-07-11T06:49:45.175Z,1004.81
2017-07-11T06:50:45.110Z,1004.89
2017-07-11T06:51:45.051Z,1004.87
2017-07-11T06:52:44.986Z,1004.87
2017-07-11T06:53:44.923Z,1004.88
2017-07-11T06:54:44.860Z,1004.89
2017-07-11T06:55:44.801Z,1004.86
2017-07-11T06:56:44.737Z,1004.88
2017-07-11T06:57:44.672Z,1004.88
2017-07-11T06:58:44.609Z,1004.89
2017-07-11T06:59:44.547Z,1004.91
2017-07-11T07:00:44.483Z,1004.91
2017-07-11T07:01:44.423Z,1004.88
2017-07-11T07:02:44.358Z,1004.87
2017-07-11T07:03:44.294Z,1004.86
2017-07-11T07:04:44.235Z,1004.83
2017-07-11T07:05:44.172Z,1004.86
2017-07-11T07:06:44.110Z,1004.86
2017-07-11T07:07:44.072Z,1004.87
2017-07-11T07:08:43.981Z,1004.88
2017-07-11T07:09:43.921Z,1004.88
2017-07-11T07:10:43.856Z,1004.83
2017-07-11T07:11:43.793Z,1004.85
2017-07-11T07:12:43.734Z,1004.86
2017-07-11T07:13:43.669Z,1004.84
2017-07-11T07:14:43.607Z,1004.83
2017-07-11T07:15:43.544Z,1004.83
2017-07-11T07:16:43.481Z,1004.85
2017-07-11T07:17:43.420Z,1004.85
2017-07-11T07:18:43.354Z,1004.85
2017-07-11T07:19:43.295Z,1004.89
2017-07-11T07:20:43.380Z,1004.92
2017-07-11T07:21:43.166Z,1004.92
2017-07-11T07:22:43.105Z,1004.92
2017-07-11T07:23:43.047Z,1004.93
2017-07-11T07:24:42.981Z,1004.9
2017-07-11T07:25:43.067Z,1004.97
2017-07-11T07:26:42.854Z,1004.96
2017-07-11T07:27:42.790Z,1004.96
2017-07-11T07:28:42.729Z,1004.94
2017-07-11T07:29:42.676Z,1004.95
2017-07-11T07:30:42.604Z,1004.95
2017-07-11T07:31:42.540Z,1004.97
2017-07-11T07:32:42.478Z,1004.95
2017-07-11T07:33:42.415Z,1005.03
2017-07-11T07:34:42.353Z,1004.98
2017-07-11T07:35:42.289Z,1005.02
2017-07-11T07:36:42.227Z,1005.05
2017-07-11T07:37:42.164Z,1005.05
2017-07-11T07:38:42.104Z,1005.12
2017-07-11T07:39:42.038Z,1005.1
2017-07-11T07:40:41.977Z,1005.07
2017-07-11T07:41:41.914Z,1005.09
2017-07-11T07:42:41.851Z,1005.07
2017-07-11T07:43:41.789Z,1005.07
2017-07-11T07:44:41.726Z,1005.09
2017-07-11T07:45:41.664Z,1005.1
2017-07-11T07:46:41.602Z,1005.14
2017-07-11T07:47:41.538Z,1005.1
2017-07-11T07:48:41.477Z,1005.08
2017-07-11T07:49:41.413Z,1005.1
2017-07-11T07:50:41.351Z,1005.04
2017-07-11T07:51:41.288Z,1005.04
2017-07-11T07:52:41.226Z,1005.03
2017-07-11T07:53:41.167Z,1005.04
2017-07-11T07:54:41.101Z,1005.05
2017-07-11T07:55:41.038Z,1005.04
2017-07-11T07:56:40.977Z,1005.04
2017-07-11T07:57:40.915Z,1005.08
2017-07-11T07:58:40.851Z,1005.04
2017-07-11T07:59:40.790Z,1005.05
2017-07-11T08:00:40.728Z,1005.09
2017-07-11T08:01:40.665Z,1005.1
2017-07-11T08:02:40.608Z,1005.07
2017-07-11T08:03:40.539Z,1005.08
2017-07-11T08:04:40.477Z,1005.11
2017-07-11T08:05:40.414Z,1005.09
2017-07-11T08:06:40.353Z,1005.1
2017-07-11T08:07:40.289Z,1005.1
2017-07-11T08:08:40.228Z,1005.11
2017-07-11T08:09:40.165Z,1005.1
2017-07-11T08:10:40.103Z,1005.14
2017-07-11T08:11:40.041Z,1005.13
2017-07-11T08:12:39.979Z,1005.17
2017-07-11T08:13:39.915Z,1005.1
2017-07-11T08:14:39.853Z,1005.13
2017-07-11T08:15:39.792Z,1005.13
2017-07-11T08:16:39.729Z,1005.16
2017-07-11T08:17:39.667Z,1005.14
2017-07-11T08:18:39.605Z,1005.17
2017-07-11T08:19:39.543Z,1005.17
2017-07-11T08:20:39.481Z,1005.15
2017-07-11T08:21:39.417Z,1005.15
2017-07-11T08:22:39.354Z,1005.18
2017-07-11T08:23:39.295Z,1005.15
2017-07-11T08:24:39.230Z,1005.14
2017-07-11T08:25:39.169Z,1005.2
2017-07-11T08:26:39.106Z,1005.19
2017-07-11T08:27:39.043Z,1005.22
2017-07-11T08:28:38.981Z,1005.21
2017-07-11T08:29:38.920Z,1005.25
2017-07-11T08:30:38.858Z,1005.25
2017-07-11T08:31:38.795Z,1005.28
2017-07-11T08:32:38.733Z,1005.28
2017-07-11T08:33:38.671Z,1005.24
2017-07-11T08:34:38.610Z,1005.23
2017-07-11T08:35:38.545Z,1005.2
2017-07-11T08:36:38.483Z,1005.22
2017-07-11T08:37:38.423Z,1005.25
2017-07-11T08:38:38.360Z,1005.23
2017-07-11T08:39:38.298Z,1005.27
2017-07-11T08:40:38.236Z,1005.23
2017-07-11T08:41:38.173Z,1005.2
2017-07-11T08:42:38.115Z,1005.22
2017-07-11T08:43:38.049Z,1005.23
2017-07-11T08:44:37.987Z,1005.23
2017-07-11T08:45:37.925Z,1005.23
2017-07-11T08:46:37.862Z,1005.23
2017-07-11T08:47:37.800Z,1005.25
2017-07-11T08:48:37.740Z,1005.25
2017-07-11T08:49:37.675Z,1005.24
2017-07-11T08:50:37.615Z,1005.26
2017-07-11T08:51:37.551Z,1005.25
2017-07-11T08:52:37.492Z,1005.2
2017-07-11T08:53:37.428Z,1005.26
2017-07-11T08:54:37.367Z,1005.23
2017-07-11T08:55:37.305Z,1005.23
2017-07-11T08:56:37.242Z,1005.24
2017-07-11T08:57:37.180Z,1005.23
2017-07-11T08:58:37.131Z,1005.3
2017-07-11T08:59:37.056Z,1005.25
2017-07-11T09:00:37.143Z,1005.27
2017-07-11T09:01:36.931Z,1005.27
2017-07-11T09:02:36.871Z,1005.33
2017-07-11T09:03:36.814Z,1005.24
2017-07-11T09:04:36.748Z,1005.29
2017-07-11T09:05:36.845Z,1005.28
2017-07-11T09:06:36.623Z,1005.31
2017-07-11T09:07:36.560Z,1005.36
2017-07-11T09:08:36.496Z,1005.3
2017-07-11T09:09:36.444Z,1005.31
2017-07-11T09:10:36.373Z,1005.38
2017-07-11T09:11:36.310Z,1005.29
2017-07-11T09:12:36.250Z,1005.31
2017-07-11T09:13:36.187Z,1005.31
2017-07-11T09:14:36.124Z,1005.3
2017-07-11T09:15:36.062Z,1005.33
2017-07-11T09:16:36.000Z,1005.34
2017-07-11T09:17:35.939Z,1005.33
2017-07-11T09:18:35.877Z,1005.34
2017-07-11T09:19:35.813Z,1005.28
2017-07-11T09:20:35.753Z,1005.31
2017-07-11T09:21:35.695Z,1005.35
2017-07-11T09:22:35.662Z,1005.33
2017-07-11T09:23:35.617Z,1005.3
2017-07-11T09:24:35.503Z,1005.34
2017-07-11T09:25:35.441Z,1005.25
2017-07-11T09:26:35.388Z,1005.24
2017-07-11T09:27:35.363Z,1005.2
2017-07-11T09:28:35.254Z,1005.25
2017-07-11T09:29:35.227Z,1005.27
2017-07-11T09:30:35.132Z,1005.29
2017-07-11T09:31:35.069Z,1005.29
2017-07-11T09:32:35.038Z,1005.28
2017-07-11T09:33:34.945Z,1005.32
2017-07-11T09:34:34.894Z,1005.34
2017-07-11T09:35:34.866Z,1005.33
2017-07-11T09:36:34.771Z,1005.31
2017-07-11T09:37:34.698Z,1005.3
2017-07-11T09:38:34.635Z,1005.33
2017-07-11T09:39:34.573Z,1005.32
2017-07-11T09:40:34.511Z,1005.26
2017-07-11T09:41:34.448Z,1005.31
2017-07-11T09:42:34.406Z,1005.29
2017-07-11T09:43:34.325Z,1005.34
2017-07-11T09:44:34.267Z,1005.32
2017-07-11T09:45:34.351Z,1005.36
2017-07-11T09:46:34.138Z,1005.3
2017-07-11T09:47:34.078Z,1005.32
2017-07-11T09:48:34.014Z,1005.33
2017-07-11T09:49:33.957Z,1005.3
2017-07-11T09:50:33.892Z,1005.36
2017-07-11T09:51:33.829Z,1005.37
2017-07-11T09:52:33.769Z,1005.34
2017-07-11T09:53:33.718Z,1005.38
2017-07-11T09:54:33.644Z,1005.39
2017-07-11T09:55:33.582Z,1005.34
2017-07-11T09:56:33.522Z,1005.34
2017-07-11T09:57:33.460Z,1005.35
2017-07-11T09:58:33.401Z,1005.38
2017-07-11T09:59:33.339Z,1005.35
2017-07-11T10:00:33.275Z,1005.33
2017-07-11T10:01:33.219Z,1005.34
2017-07-11T10:02:33.152Z,1005.37
2017-07-11T10:03:33.091Z,1005.4
2017-07-11T10:04:33.035Z,1005.4
2017-07-11T10:05:32.970Z,1005.4
2017-07-11T10:06:32.907Z,1005.38
2017-07-11T10:07:32.851Z,1005.38
2017-07-11T10:08:32.785Z,1005.41
2017-07-11T10:09:32.724Z,1005.39
2017-07-11T10:10:32.962Z,1005.41
2017-07-11T10:11:32.602Z,1005.41
2017-07-11T10:12:32.541Z,1005.39
2017-07-11T10:13:32.479Z,1005.39
2017-07-11T10:14:32.418Z,1005.42
2017-07-11T10:15:32.607Z,1005.43
2017-07-11T10:16:32.297Z,1005.43
2017-07-11T10:17:32.234Z,1005.39
2017-07-11T10:18:32.174Z,1005.41
2017-07-11T10:19:32.114Z,1005.34
2017-07-11T10:20:32.054Z,1005.33
2017-07-11T10:21:31.993Z,1005.4
2017-07-11T10:22:31.930Z,1005.36
2017-07-11T10:23:31.870Z,1005.36
2017-07-11T10:24:31.810Z,1005.35
2017-07-11T10:25:31.749Z,1005.31
2017-07-11T10:26:31.688Z,1005.29
2017-07-11T10:27:31.628Z,1005.34
2017-07-11T10:28:31.566Z,1005.33
2017-07-11T10:29:31.522Z,1005.33
2017-07-11T10:30:31.445Z,1005.35
2017-07-11T10:31:31.384Z,1005.32
2017-07-11T10:32:31.323Z,1005.32
2017-07-11T10:33:31.262Z,1005.36
2017-07-11T10:34:31.202Z,1005.38
2017-07-11T10:35:31.141Z,1005.34
2017-07-11T10:36:31.079Z,1005.31
2017-07-11T10:37:31.018Z,1005.34
2017-07-11T10:38:30.958Z,1005.32
2017-07-11T10:39:30.897Z,1005.35
2017-07-11T10:40:30.835Z,1005.3
2017-07-11T10:41:30.774Z,1005.29
2017-07-11T10:42:30.716Z,1005.33
2017-07-11T10:43:30.651Z,1005.29
2017-07-11T10:44:30.592Z,1005.33
2017-07-11T10:45:30.546Z,1005.35
2017-07-11T10:46:30.468Z,1005.29
2017-07-11T10:47:30.411Z,1005.32
2017-07-11T10:48:30.348Z,1005.36
2017-07-11T10:49:30.286Z,1005.29
2017-07-11T10:50:30.323Z,1005.33
2017-07-11T10:51:30.163Z,1005.38
2017-07-11T10:52:30.102Z,1005.36
2017-07-11T10:53:30.040Z,1005.4
2017-07-11T10:54:29.979Z,1005.4
2017-07-11T10:55:30.169Z,1005.37
2017-07-11T10:56:29.878Z,1005.36
2017-07-11T10:57:29.795Z,1005.35
2017-07-11T10:58:29.734Z,1005.29
2017-07-11T10:59:29.675Z,1005.29
2017-07-11T11:00:29.714Z,1005.34
2017-07-11T11:01:29.552Z,1005.33
2017-07-11T11:02:29.489Z,1005.32
2017-07-11T11:03:29.429Z,1005.29
2017-07-11T11:04:29.368Z,1005.29
2017-07-11T11:05:29.310Z,1005.26
2017-07-11T11:06:29.245Z,1005.28
2017-07-11T11:07:29.448Z,1005.25
2017-07-11T11:08:29.122Z,1005.29
2017-07-11T11:09:29.061Z,1005.31
2017-07-11T11:10:29.002Z,1005.33
2017-07-11T11:11:28.940Z,1005.3
2017-07-11T11:12:28.876Z,1005.29
2017-07-11T11:13:28.815Z,1005.27
2017-07-11T11:14:28.755Z,1005.27
2017-07-11T11:15:28.693Z,1005.25
2017-07-11T11:16:28.631Z,1005.29
2017-07-11T11:17:28.570Z,1005.26
2017-07-11T11:18:28.510Z,1005.3
2017-07-11T11:19:28.448Z,1005.28
2017-07-11T11:20:28.387Z,1005.29
2017-07-11T11:21:28.325Z,1005.31
2017-07-11T11:22:28.313Z,1005.32
2017-07-11T11:23:28.206Z,1005.34
2017-07-11T11:24:28.141Z,1005.3
2017-07-11T11:25:28.080Z,1005.35
2017-07-11T11:26:28.021Z,1005.3
2017-07-11T11:27:27.959Z,1005.31
2017-07-11T11:28:27.917Z,1005.24
2017-07-11T11:29:27.835Z,1005.27
2017-07-11T11:30:27.772Z,1005.3
2017-07-11T11:31:27.713Z,1005.32
2017-07-11T11:32:27.651Z,1005.29
2017-07-11T11:33:27.592Z,1005.31
2017-07-11T11:34:27.526Z,1005.26
2017-07-11T11:35:27.468Z,1005.27
2017-07-11T11:36:27.406Z,1005.24
2017-07-11T11:37:27.342Z,1005.21
2017-07-11T11:38:27.282Z,1005.2
2017-07-11T11:39:27.221Z,1005.21
2017-07-11T11:40:27.159Z,1005.22
2017-07-11T11:41:27.097Z,1005.19
2017-07-11T11:42:27.035Z,1005.25
2017-07-11T11:43:26.974Z,1005.23
2017-07-11T11:44:26.914Z,1005.19
2017-07-11T11:45:26.850Z,1005.21
2017-07-11T11:46:26.789Z,1005.19
2017-07-11T11:47:26.728Z,1005.17
2017-07-11T11:48:26.667Z,1005.24
2017-07-11T11:49:26.604Z,1005.18
2017-07-11T11:50:26.544Z,1005.13
2017-07-11T11:51:26.482Z,1005.13
2017-07-11T11:52:26.420Z,1005.1
2017-07-11T11:53:26.359Z,1005.17
2017-07-11T11:54:26.297Z,1005.17
2017-07-11T11:55:26.236Z,1005.17
2017-07-11T11:56:26.175Z,1005.16
2017-07-11T11:57:26.112Z,1005.16
2017-07-11T11:58:26.052Z,1005.12
2017-07-11T11:59:26.004Z,1005.07
2017-07-11T12:00:25.931Z,1005.15
2017-07-11T12:01:25.867Z,1005.12
2017-07-11T12:02:25.805Z,1005.16
2017-07-11T12:03:25.744Z,1005.17
2017-07-11T12:04:25.683Z,1005.22
2017-07-11T12:05:25.622Z,1005.22
2017-07-11T12:06:25.561Z,1005.23
2017-07-11T12:07:25.504Z,1005.17
2017-07-11T12:08:25.439Z,1005.14